Encruzilhada do Sul, Brazil
Current Conditions -  °F | °C
As of 4:00 AM on Sunday 26 Oct 2014 (Local Time) from SBPA Reporting Station
Scattered Clouds Scattered Clouds  
Wind Chill: 68°   Ceiling: Unl
Heat Index: 68°   Visibility: 6mi
Dew Point: 66°   Wind: 14mph
Humidity: 94%   Direction: 110°ESE
Pressure: 29.91"   Gusts: NA
Location:  30.54°S, 52.52°W
Report Text: SBPA 260600Z 11012KT 9999 SCT009 20/19 Q1013
Loading
Personal Weather Stations






























Interactive Weather Map
Tropical Storm Tracking
New forecast layout! Learn more

10-Day Weather Forecast

Advertisements
Track Severe Weather on mobile